createdAt,value
2023-03-24T00:03:02.680Z,9.50
2023-03-24T00:07:06.121Z,10.38
2023-03-24T00:11:11.708Z,10.05
2023-03-24T00:15:19.099Z,9.13
2023-03-24T00:19:23.671Z,9.27
2023-03-24T00:23:28.037Z,9.20
2023-03-24T00:27:36.775Z,9.65
2023-03-24T00:31:40.611Z,9.82
2023-03-24T00:35:45.873Z,10.02
2023-03-24T00:39:50.040Z,9.23
2023-03-24T00:43:56.342Z,8.43
2023-03-24T00:47:59.924Z,9.65
2023-03-24T00:52:10.268Z,10.30
2023-03-24T00:56:15.625Z,10.18
2023-03-24T01:00:21.285Z,9.68
2023-03-24T01:04:26.338Z,9.57
2023-03-24T01:08:30.966Z,9.50
2023-03-24T01:12:36.966Z,10.30
2023-03-24T01:16:40.935Z,11.13
2023-03-24T01:20:46.585Z,9.63
2023-03-24T01:24:53.148Z,10.27
2023-03-24T01:28:56.959Z,9.18
2023-03-24T01:33:00.592Z,9.07
2023-03-24T01:37:04.593Z,9.48
2023-03-24T01:41:09.752Z,10.57
2023-03-24T01:45:45.657Z,10.52
2023-03-24T01:49:53.857Z,11.13
2023-03-24T01:54:01.257Z,10.85
2023-03-24T01:58:07.356Z,10.55
2023-03-24T02:02:30.075Z,9.68
2023-03-24T02:06:36.262Z,10.43
2023-03-24T02:10:40.399Z,11.10
2023-03-24T02:14:45.264Z,11.05
2023-03-24T02:18:57.201Z,10.65
2023-03-24T02:23:31.063Z,10.07
2023-03-24T02:27:55.118Z,9.18
2023-03-24T02:32:24.448Z,11.18
2023-03-24T02:36:58.415Z,9.95
2023-03-24T02:41:07.998Z,10.50
2023-03-24T02:45:25.056Z,9.90
2023-03-24T02:49:36.993Z,10.23
2023-03-24T02:53:52.722Z,9.98
2023-03-24T02:58:08.596Z,10.73
2023-03-24T03:02:28.709Z,11.00
2023-03-24T03:06:39.730Z,11.20
2023-03-24T03:10:46.540Z,10.25
2023-03-24T03:14:56.207Z,11.32
2023-03-24T03:19:03.408Z,10.55
2023-03-24T03:23:13.395Z,10.75
2023-03-24T03:27:20.532Z,9.80
2023-03-24T03:31:31.035Z,10.98
2023-03-24T03:35:38.857Z,11.23
2023-03-24T03:39:48.658Z,10.13
2023-03-24T03:43:53.325Z,11.55
2023-03-24T03:47:58.299Z,10.40
2023-03-24T03:52:01.691Z,11.80
2023-03-24T03:56:05.510Z,11.95
2023-03-24T04:00:20.543Z,11.30
2023-03-24T04:05:15.114Z,9.90
2023-03-24T04:09:36.914Z,9.32
2023-03-24T04:13:53.991Z,9.43
2023-03-24T04:18:27.265Z,10.80
2023-03-24T04:22:50.064Z,10.40
2023-03-24T04:27:00.770Z,9.98
2023-03-24T04:31:14.516Z,9.88
2023-03-24T04:35:26.444Z,9.98
2023-03-24T04:39:59.102Z,10.18
2023-03-24T04:44:03.398Z,10.02
2023-03-24T04:48:12.127Z,9.50
2023-03-24T04:52:41.404Z,10.13
2023-03-24T04:56:49.599Z,10.32
2023-03-24T05:00:59.645Z,9.50
2023-03-24T05:05:06.624Z,7.90
2023-03-24T05:09:14.473Z,8.00
2023-03-24T05:13:19.111Z,8.18
2023-03-24T05:17:26.546Z,7.80
2023-03-24T05:21:31.875Z,7.70
2023-03-24T05:25:36.675Z,7.47
2023-03-24T05:29:41.540Z,8.13
2023-03-24T05:33:47.336Z,7.72
2023-03-24T05:37:53.852Z,7.40
2023-03-24T05:41:57.083Z,7.57
2023-03-24T05:46:01.613Z,7.93
2023-03-24T05:50:09.633Z,8.65
2023-03-24T05:54:13.290Z,9.32
2023-03-24T05:58:19.978Z,9.13
2023-03-24T06:02:28.685Z,9.40
2023-03-24T06:06:38.347Z,9.45
2023-03-24T06:10:41.756Z,9.48
2023-03-24T06:14:45.574Z,8.63
2023-03-24T06:18:52.815Z,9.75
2023-03-24T06:23:16.742Z,8.65
2023-03-24T06:27:46.231Z,9.07
2023-03-24T06:31:50.214Z,9.77
2023-03-24T06:35:55.735Z,9.60
2023-03-24T06:39:58.795Z,9.15
2023-03-24T06:44:05.974Z,8.55
2023-03-24T06:48:09.895Z,8.68
2023-03-24T06:52:14.578Z,9.30
2023-03-24T06:56:21.106Z,8.80
2023-03-24T07:00:30.282Z,8.73
2023-03-24T07:04:43.967Z,8.98
2023-03-24T07:08:55.353Z,8.55
2023-03-24T07:13:03.302Z,8.43
2023-03-24T07:17:08.574Z,8.15
2023-03-24T07:21:20.536Z,8.75
2023-03-24T07:25:28.077Z,8.50
2023-03-24T07:29:38.309Z,8.35
2023-03-24T07:33:55.197Z,8.10
2023-03-24T07:37:59.328Z,8.45
2023-03-24T07:42:03.995Z,8.55
2023-03-24T07:46:25.437Z,8.57
2023-03-24T07:50:29.283Z,8.57
2023-03-24T07:54:32.794Z,8.35
2023-03-24T07:58:37.253Z,7.88
2023-03-24T08:03:01.338Z,8.68
2023-03-24T08:07:22.993Z,8.50
2023-03-24T08:11:25.970Z,8.52
2023-03-24T08:15:30.468Z,9.18
2023-03-24T08:19:33.549Z,8.40
2023-03-24T08:23:37.119Z,8.00
2023-03-24T08:27:43.462Z,8.60
2023-03-24T08:31:48.005Z,8.75
2023-03-24T08:35:51.649Z,8.10
2023-03-24T08:39:58.778Z,8.68
2023-03-24T08:44:06.246Z,8.00
2023-03-24T08:48:12.072Z,8.20
2023-03-24T08:52:15.130Z,7.63
2023-03-24T08:56:18.582Z,7.45
2023-03-24T09:00:22.699Z,7.80
2023-03-24T09:04:27.491Z,7.35
2023-03-24T09:08:31.583Z,7.03
2023-03-24T09:12:34.679Z,6.75
2023-03-24T09:16:38.038Z,7.47
2023-03-24T09:20:42.720Z,7.75
2023-03-24T09:24:45.767Z,7.22
2023-03-24T09:28:48.819Z,6.50
2023-03-24T09:32:51.992Z,5.95
2023-03-24T09:36:56.527Z,5.72
2023-03-24T09:41:03.010Z,5.93
2023-03-24T09:45:13.200Z,5.65
2023-03-24T09:49:23.612Z,5.10
2023-03-24T09:53:37.033Z,5.40
2023-03-24T09:57:42.301Z,5.53
2023-03-24T10:01:45.610Z,5.47
2023-03-24T10:05:55.386Z,5.07
2023-03-24T10:10:01.909Z,4.93
2023-03-24T10:14:15.339Z,4.97
2023-03-24T10:18:31.946Z,4.45
2023-03-24T10:22:41.379Z,4.55
2023-03-24T10:26:54.139Z,5.10
2023-03-24T10:31:01.511Z,4.88
2023-03-24T10:35:10.065Z,4.72
2023-03-24T10:39:19.996Z,4.60
2023-03-24T10:43:28.268Z,4.93
2023-03-24T10:47:33.992Z,4.68
2023-03-24T10:51:37.762Z,5.20
2023-03-24T10:55:43.436Z,5.07
2023-03-24T10:59:56.075Z,4.80
2023-03-24T11:04:04.516Z,4.47
2023-03-24T11:08:26.002Z,4.78
2023-03-24T11:12:31.185Z,5.30
2023-03-24T11:16:39.612Z,4.75
2023-03-24T11:20:45.972Z,5.15
2023-03-24T11:24:51.999Z,5.05
2023-03-24T11:28:58.157Z,5.05
2023-03-24T11:33:05.006Z,4.68
2023-03-24T11:37:13.261Z,4.75
2023-03-24T11:41:22.697Z,4.97
2023-03-24T11:45:35.689Z,4.78
2023-03-24T11:49:46.349Z,4.95
2023-03-24T11:53:52.747Z,4.88
2023-03-24T11:57:59.331Z,4.35
2023-03-24T12:02:13.246Z,4.95
2023-03-24T12:06:31.714Z,5.10
2023-03-24T12:10:46.006Z,4.55
2023-03-24T12:15:07.814Z,4.65
2023-03-24T12:19:45.151Z,4.75
2023-03-24T12:23:58.761Z,4.35
2023-03-24T12:28:20.011Z,4.82
2023-03-24T12:32:49.510Z,4.78
2023-03-24T12:37:01.344Z,5.45
2023-03-24T12:41:40.601Z,5.22
2023-03-24T12:45:49.622Z,5.07
2023-03-24T12:50:11.287Z,4.50
2023-03-24T12:54:27.597Z,5.90
2023-03-24T12:58:41.545Z,5.80
2023-03-24T13:02:49.985Z,5.68
2023-03-24T13:07:00.833Z,5.28
2023-03-24T13:11:14.901Z,5.20
2023-03-24T13:15:31.643Z,5.18
2023-03-24T13:19:38.719Z,5.05
2023-03-24T13:23:56.739Z,5.32
2023-03-24T13:28:06.347Z,6.22
2023-03-24T13:32:17.315Z,5.45
2023-03-24T13:36:43.026Z,5.60
2023-03-24T13:40:51.900Z,5.93
2023-03-24T13:44:54.792Z,5.80
2023-03-24T13:49:00.278Z,5.60
2023-03-24T13:53:14.054Z,5.78
2023-03-24T13:57:20.543Z,5.95
2023-03-24T14:01:35.495Z,6.28
2023-03-24T14:05:57.693Z,5.75
2023-03-24T14:10:03.689Z,6.20
2023-03-24T14:14:08.709Z,5.60
2023-03-24T14:18:43.345Z,6.00
2023-03-24T14:22:48.553Z,5.60
2023-03-24T14:26:51.597Z,5.80
2023-03-24T14:31:15.515Z,6.70
2023-03-24T14:35:37.164Z,5.75
2023-03-24T14:39:42.952Z,5.53
2023-03-24T14:44:03.776Z,5.28
2023-03-24T14:48:18.104Z,5.20
2023-03-24T14:52:26.259Z,5.35
2023-03-24T14:56:36.128Z,6.10
2023-03-24T15:00:51.711Z,5.85
2023-03-24T15:05:26.103Z,5.43
2023-03-24T15:09:30.552Z,5.95
2023-03-24T15:13:37.329Z,5.40
2023-03-24T15:17:43.444Z,5.30
2023-03-24T15:21:48.576Z,6.30
2023-03-24T15:25:54.702Z,4.55
2023-03-24T15:30:01.096Z,3.33
2023-03-24T15:34:24.066Z,2.65
2023-03-24T15:38:31.528Z,2.33
2023-03-24T15:42:42.541Z,2.30
2023-03-24T15:46:46.050Z,1.60
2023-03-24T15:51:00.400Z,1.30
2023-03-24T15:55:08.767Z,1.17
2023-03-24T15:59:16.151Z,1.80
2023-03-24T16:03:19.310Z,1.33
2023-03-24T16:07:29.665Z,0.88
2023-03-24T16:11:32.834Z,0.82
2023-03-24T16:15:37.323Z,0.80
2023-03-24T16:19:40.546Z,0.98
2023-03-24T16:23:44.145Z,0.70
2023-03-24T16:27:47.183Z,1.00
2023-03-24T16:31:53.265Z,0.90
2023-03-24T16:35:56.289Z,1.08
2023-03-24T16:40:01.153Z,0.90
2023-03-24T16:44:05.397Z,1.00
2023-03-24T16:48:10.868Z,1.00
2023-03-24T16:52:14.026Z,0.90
2023-03-24T16:56:19.667Z,1.10
2023-03-24T17:00:23.697Z,0.85
2023-03-24T17:04:31.120Z,0.95
2023-03-24T17:08:34.052Z,1.00
2023-03-24T17:12:37.535Z,0.98
2023-03-24T17:16:43.546Z,1.25
2023-03-24T17:20:48.501Z,1.20
2023-03-24T17:24:57.578Z,1.60
2023-03-24T17:29:00.550Z,1.58
2023-03-24T17:33:03.736Z,1.80
2023-03-24T17:37:08.274Z,1.30
2023-03-24T17:41:11.513Z,1.48
2023-03-24T17:45:16.095Z,1.60
2023-03-24T17:49:19.097Z,1.60
2023-03-24T17:53:25.655Z,1.67
2023-03-24T17:57:28.766Z,2.08
2023-03-24T18:01:35.042Z,2.67
2023-03-24T18:05:38.349Z,2.00
2023-03-24T18:09:42.668Z,2.50
2023-03-24T18:13:46.146Z,2.70
2023-03-24T18:17:49.190Z,2.40
2023-03-24T18:21:52.293Z,2.15
2023-03-24T18:26:02.229Z,2.60
2023-03-24T18:30:06.823Z,2.83
2023-03-24T18:34:09.901Z,2.50
2023-03-24T18:38:15.220Z,3.03
2023-03-24T18:42:19.718Z,2.20
2023-03-24T18:46:23.535Z,2.65
2023-03-24T18:50:26.595Z,2.65
2023-03-24T18:54:29.661Z,3.13
2023-03-24T18:58:34.976Z,2.67
2023-03-24T19:02:38.087Z,2.72
2023-03-24T19:06:42.495Z,2.80
2023-03-24T19:10:46.202Z,3.10
2023-03-24T19:14:50.754Z,2.85
2023-03-24T19:18:54.055Z,2.78
2023-03-24T19:22:57.031Z,3.13
2023-03-24T19:27:00.853Z,3.50
2023-03-24T19:31:10.718Z,3.70
2023-03-24T19:35:14.228Z,3.95
2023-03-24T19:39:17.457Z,3.92
2023-03-24T19:43:20.728Z,3.42
2023-03-24T19:47:25.069Z,3.40
2023-03-24T19:51:28.113Z,3.35
2023-03-24T19:55:31.486Z,3.65
2023-03-24T19:59:35.343Z,3.05
2023-03-24T20:03:40.089Z,3.17
2023-03-24T20:07:43.248Z,4.72
2023-03-24T20:11:47.558Z,4.97
2023-03-24T20:15:50.937Z,4.38
2023-03-24T20:20:04.347Z,4.00
2023-03-24T20:24:08.009Z,3.08
2023-03-24T20:28:10.980Z,3.17
2023-03-24T20:32:14.418Z,2.88
2023-03-24T20:36:19.112Z,3.30
2023-03-24T20:40:22.263Z,3.13
2023-03-24T20:44:25.543Z,3.50
2023-03-24T20:48:29.534Z,3.20
2023-03-24T20:52:34.969Z,3.00
2023-03-24T20:56:38.672Z,3.40
2023-03-24T21:00:46.204Z,3.00
2023-03-24T21:04:49.691Z,2.33
2023-03-24T21:08:54.965Z,1.75
2023-03-24T21:12:58.014Z,2.05
2023-03-24T21:17:01.414Z,2.15
2023-03-24T21:21:04.875Z,1.80
2023-03-24T21:25:09.752Z,2.03
2023-03-24T21:29:13.150Z,1.85
2023-03-24T21:33:16.805Z,1.75
2023-03-24T21:37:19.875Z,1.50
2023-03-24T21:41:24.330Z,1.40
2023-03-24T21:45:27.695Z,1.55
2023-03-24T21:49:30.664Z,1.50
2023-03-24T21:53:35.028Z,1.20
2023-03-24T21:57:39.453Z,1.35
2023-03-24T22:01:42.791Z,1.17
2023-03-24T22:05:45.949Z,1.00
2023-03-24T22:09:50.801Z,0.95
2023-03-24T22:13:55.188Z,0.70
2023-03-24T22:17:58.745Z,0.80
2023-03-24T22:22:02.186Z,0.70
2023-03-24T22:26:07.554Z,0.90
2023-03-24T22:30:14.685Z,0.70
2023-03-24T22:34:17.781Z,0.57
2023-03-24T22:38:20.818Z,0.60
2023-03-24T22:42:23.940Z,0.60
2023-03-24T22:46:28.357Z,0.60
2023-03-24T22:50:31.452Z,0.45
2023-03-24T22:54:34.630Z,0.40
2023-03-24T22:58:37.682Z,0.70
2023-03-24T23:02:42.451Z,0.60
2023-03-24T23:06:46.172Z,0.57
2023-03-24T23:10:49.277Z,0.40
2023-03-24T23:14:54.427Z,0.30
2023-03-24T23:18:58.928Z,0.50
2023-03-24T23:23:03.748Z,0.45
2023-03-24T23:27:08.105Z,0.47
2023-03-24T23:31:13.556Z,0.40
2023-03-24T23:35:24.822Z,0.45
2023-03-24T23:39:27.952Z,0.40
2023-03-24T23:43:30.917Z,0.43
2023-03-24T23:47:34.683Z,0.35
2023-03-24T23:51:39.070Z,0.43
2023-03-24T23:55:42.345Z,0.50
2023-03-24T23:59:45.973Z,0.40
